Ana Sayfa
METAR-TAF:

METAR-TAF

Havaalanları :

Pell City, Alabama, Amerika Birleşik Devletleri

Enlem: 33-33-32N, Boylam: 086-14-57W, yükseklik: 148 m

Güncel hava durumu gözlemi

Rapor saat 18:35 UTC de 37 dakika önce yapıldı.
Rüzgar değişken yönden 4 kt
Sıcaklık 36°C
Nem 27%
Basınç 1015 hPa
Görüş mesafesi: 16.1 km
Açık gökyüzü

METAR: KPLR 251835Z AUTO VRB04KT 10SM CLR 36/14 A2997 RMK A01

Saat: 14:12 (19:12 UTC)


TAF: eksik

4.000'den fazla havaalanı için hava durumu gözlemleri ve tahminleri (METAR ve TAF raporları).

Kullanılabilir istasyonlar harita üzerinde sarı ve kırmızı noktalarla gösterilir.

İstasyonun adını görmek için fareyi noktanın üzerinde gezdirin.

Sonrasında hava gözlem ve tahminlerini görmek için tıklayın.

Haritayı değiştirmek için: yaklaştırmak için siyah artı işaretli yeşil düğmeye ve uzaklaştırmak için de eksi işaretli düğmeye hızla tıklayın; bitişik haritalar için yeşil okları kullanın.


METAR-TAF: